Time;durP1;ratioP1;P1;durP2;ratioP2;P2;SDS_P1;SDS_P2;PMS_P1;PMS_P2;Temp;Humidity;BMP_temperature;BMP_pressure;BME280_temperature;BME280_humidity;BME280_pressure;Samples;Min_cycle;Max_cycle;Signal;HPM_P1;HPM_P2
2021/08/30 00:00:56;;;;;;;9.38;4.15;;;13.40;99.90;;;;;;5096727;28;20032;-68
2021/08/30 00:03:23;;;;;;;6.05;4.00;;;13.50;99.90;;;;;;5096871;28;20068;-68
2021/08/30 00:05:49;;;;;;;8.95;4.03;;;13.60;99.90;;;;;;5096992;28;20028;-68
2021/08/30 00:08:15;;;;;;;7.00;4.07;;;13.20;99.90;;;;;;5096761;28;20024;-68
2021/08/30 00:10:41;;;;;;;5.47;4.20;;;13.40;99.90;;;;;;5096968;28;20039;-68
2021/08/30 00:13:07;;;;;;;8.10;4.20;;;13.60;99.90;;;;;;5096728;28;20024;-68
2021/08/30 00:15:33;;;;;;;6.97;3.80;;;13.40;99.90;;;;;;5097068;28;20388;-68
2021/08/30 00:17:59;;;;;;;7.43;4.05;;;13.50;99.90;;;;;;5096687;28;20476;-68
2021/08/30 00:20:25;;;;;;;7.28;4.13;;;13.50;99.90;;;;;;5096980;28;20032;-68
2021/08/30 00:22:51;;;;;;;5.15;3.90;;;13.70;99.90;;;;;;5096736;28;20016;-68
2021/08/30 00:25:17;;;;;;;7.28;4.15;;;13.50;99.90;;;;;;5096695;28;20046;-68
2021/08/30 00:27:42;;;;;;;5.20;4.22;;;13.20;99.90;;;;;;5096704;28;20024;-68
2021/08/30 00:30:10;;;;;;;9.80;5.13;;;13.60;99.90;;;;;;5096779;28;20069;-68
2021/08/30 00:32:36;;;;;;;6.45;4.13;;;13.40;99.90;;;;;;5096182;28;20020;-68
2021/08/30 00:35:02;;;;;;;5.43;4.07;;;13.30;99.90;;;;;;5096825;28;20072;-68
2021/08/30 00:37:27;;;;;;;6.85;4.35;;;13.20;99.90;;;;;;5096461;28;20048;-68
2021/08/30 00:39:53;;;;;;;7.65;3.85;;;13.30;99.90;;;;;;5096267;28;20030;-68
2021/08/30 00:42:19;;;;;;;6.10;4.03;;;13.20;99.90;;;;;;5096698;28;20392;-68
2021/08/30 00:44:45;;;;;;;6.95;4.25;;;13.10;99.90;;;;;;5099884;28;20103;-68
2021/08/30 00:47:13;;;;;;;6.68;4.75;;;13.20;99.90;;;;;;5100226;28;20380;-68
2021/08/30 00:49:39;;;;;;;11.73;5.90;;;13.40;99.90;;;;;;5100524;28;20032;-68
2021/08/30 00:52:05;;;;;;;7.10;4.40;;;12.90;99.90;;;;;;5100296;28;20024;-68
2021/08/30 00:54:32;;;;;;;10.95;4.70;;;13.00;99.90;;;;;;5100509;28;20107;-68
2021/08/30 00:56:59;;;;;;;9.48;4.78;;;13.00;99.90;;;;;;5100255;28;20021;-68
2021/08/30 00:59:25;;;;;;;4.88;3.40;;;13.30;99.90;;;;;;5100133;28;20066;-68
2021/08/30 01:01:52;;;;;;;5.47;3.92;;;12.80;99.90;;;;;;5099909;28;20097;-68
2021/08/30 01:04:18;;;;;;;7.40;5.07;;;13.40;99.90;;;;;;5100340;28;20044;-68
2021/08/30 01:06:57;;;;;;;5.32;3.53;;;12.80;99.90;;;;;;5100109;28;20024;-68
2021/08/30 01:09:45;;;;;;;8.25;4.38;;;12.90;99.90;;;;;;5100088;28;20030;-68
2021/08/30 01:12:22;;;;;;;6.40;4.35;;;13.20;99.90;;;;;;5100175;28;20028;-68
2021/08/30 01:14:57;;;;;;;;;;;12.90;99.90;;;;;;5100556;28;20044;-68
2021/08/30 01:17:24;;;;;;;7.65;5.32;;;12.70;99.90;;;;;;5099612;28;20423;-68
2021/08/30 01:20:03;;;;;;;5.55;4.38;;;12.70;99.90;;;;;;5099865;28;20024;-68
2021/08/30 01:22:31;;;;;;;10.82;5.50;;;12.70;99.90;;;;;;5100201;28;20031;-68
2021/08/30 01:25:00;;;;;;;5.75;4.50;;;13.10;99.90;;;;;;5099824;28;20020;-68
2021/08/30 01:27:29;;;;;;;8.18;4.22;;;12.90;99.90;;;;;;5099568;28;20411;-68
2021/08/30 01:30:03;;;;;;;11.65;4.75;;;13.10;99.90;;;;;;5099864;28;20031;-68
2021/08/30 01:32:37;;;;;;;5.95;4.65;;;13.00;99.90;;;;;;5099286;28;20023;-68
2021/08/30 01:35:12;;;;;;;7.65;4.22;;;13.00;99.90;;;;;;5099804;28;20028;-68
2021/08/30 01:37:40;;;;;;;6.35;3.97;;;12.60;99.90;;;;;;5099667;28;20024;-68
2021/08/30 01:40:09;;;;;;;7.60;4.03;;;12.90;99.90;;;;;;5099418;28;20020;-68
2021/08/30 01:42:39;;;;;;;10.15;4.45;;;12.90;99.90;;;;;;5099574;28;20083;-68
2021/08/30 01:45:08;;;;;;;5.18;3.95;;;13.30;99.90;;;;;;5099497;28;20080;-68
2021/08/30 01:47:35;;;;;;;10.52;5.03;;;13.20;99.90;;;;;;5099056;28;20052;-68
2021/08/30 01:50:03;;;;;;;8.95;4.32;;;12.90;99.90;;;;;;5099455;28;20073;-68
2021/08/30 01:52:35;;;;;;;6.43;3.80;;;13.00;99.90;;;;;;5099463;28;20024;-68
2021/08/30 01:55:11;;;;;;;9.63;4.40;;;13.00;99.90;;;;;;5099346;28;20024;-68
2021/08/30 02:00:42;;;;;;;5.07;3.78;;;12.70;99.90;;;;;;5097890;28;20116;-68
2021/08/30 02:00:46;;;;;;;5.75;4.03;;;12.60;99.90;;;;;;5098598;28;20032;-68
2021/08/30 02:03:15;;;;;;;6.07;4.32;;;12.70;99.90;;;;;;5098887;28;20020;-68
2021/08/30 02:05:43;;;;;;;7.40;4.05;;;12.80;99.90;;;;;;5099115;28;20029;-68
2021/08/30 02:08:09;;;;;;;7.40;4.20;;;12.70;99.90;;;;;;5098869;28;20069;-68
2021/08/30 02:10:35;;;;;;;7.72;3.95;;;13.20;99.90;;;;;;5098930;28;20028;-68
2021/08/30 02:13:02;;;;;;;9.40;4.30;;;12.60;99.90;;;;;;5099077;28;20084;-68
2021/08/30 02:15:28;;;;;;;5.78;3.58;;;12.40;99.90;;;;;;5098849;28;20035;-68
2021/08/30 02:17:59;;;;;;;7.32;4.57;;;12.70;99.90;;;;;;5098425;28;20036;-68
2021/08/30 02:20:29;;;;;;;6.22;3.53;;;13.00;99.90;;;;;;5098784;28;20530;-68
2021/08/30 02:22:58;;;;;;;7.97;4.97;;;12.30;99.90;;;;;;5098677;28;20476;-68
2021/08/30 02:25:25;;;;;;;9.52;4.22;;;12.30;99.90;;;;;;5098722;28;20016;-68
2021/08/30 02:27:57;;;;;;;5.07;3.90;;;12.90;99.90;;;;;;5098429;28;20028;-68
2021/08/30 02:30:36;;;;;;;9.20;4.70;;;12.60;99.90;;;;;;5098802;28;20067;-68
2021/08/30 02:33:09;;;;;;;7.38;3.90;;;12.40;99.90;;;;;;5102082;28;20037;-68
2021/08/30 02:35:39;;;;;;;8.68;4.60;;;12.90;99.90;;;;;;5098678;28;20024;-68
2021/08/30 02:38:08;;;;;;;5.78;4.60;;;12.10;99.90;;;;;;5098505;28;20088;-68
2021/08/30 02:40:35;;;;;;;7.40;4.20;;;12.40;99.90;;;;;;5098460;28;20119;-68
2021/08/30 02:43:03;;;;;;;8.57;5.18;;;12.60;99.90;;;;;;5098382;28;20054;-68
2021/08/30 02:45:30;;;;;;;9.25;4.30;;;12.60;99.90;;;;;;5098400;28;20468;-68
2021/08/30 02:48:01;;;;;;;9.63;4.88;;;12.60;99.90;;;;;;5098118;28;20027;-68
2021/08/30 02:50:29;;;;;;;6.35;4.32;;;12.40;99.90;;;;;;5098124;28;20028;-68
2021/08/30 02:52:59;;;;;;;5.93;4.60;;;12.50;99.90;;;;;;5098078;28;20442;-68
2021/08/30 02:55:25;;;;;;;6.50;3.83;;;13.10;99.90;;;;;;5097927;28;20484;-68
2021/08/30 02:57:51;;;;;;;8.88;4.80;;;12.50;99.90;;;;;;5098061;28;20055;-68
2021/08/30 03:00:18;;;;;;;5.90;5.18;;;12.20;99.90;;;;;;5097800;28;20111;-68
2021/08/30 03:02:46;;;;;;;11.00;4.45;;;12.40;99.90;;;;;;5097707;28;20391;-68
2021/08/30 03:05:13;;;;;;;5.10;3.78;;;12.60;99.90;;;;;;5097851;28;20084;-68
2021/08/30 03:07:39;;;;;;;7.97;4.55;;;12.10;99.90;;;;;;5097390;28;20027;-68
2021/08/30 03:10:06;;;;;;;8.95;4.93;;;12.40;99.90;;;;;;5097652;28;20044;-68
2021/08/30 03:12:40;;;;;;;8.05;4.97;;;12.40;99.90;;;;;;5097821;28;20086;-68
2021/08/30 03:15:11;;;;;;;5.28;3.83;;;12.20;99.90;;;;;;5097582;28;20496;-68
2021/08/30 03:17:40;;;;;;;8.98;4.95;;;12.70;99.90;;;;;;5097501;28;20080;-68
2021/08/30 03:20:07;;;;;;;5.00;4.15;;;12.30;99.90;;;;;;5097593;28;20020;-68
2021/08/30 03:22:34;;;;;;;6.55;4.35;;;12.30;99.90;;;;;;5097848;28;20361;-68
2021/08/30 03:25:02;;;;;;;11.88;4.95;;;12.30;99.90;;;;;;5097664;28;20016;-68
2021/08/30 03:27:29;;;;;;;5.97;4.47;;;12.80;99.90;;;;;;5097484;28;20031;-68
2021/08/30 03:29:57;;;;;;;13.70;6.30;;;12.30;99.90;;;;;;5097435;28;20024;-68
2021/08/30 03:32:24;;;;;;;12.48;4.65;;;12.40;99.90;;;;;;5097005;28;20492;-68
2021/08/30 03:34:50;;;;;;;10.07;4.82;;;12.50;99.90;;;;;;5097392;28;20024;-68
2021/08/30 03:37:17;;;;;;;7.13;4.82;;;12.70;99.90;;;;;;5097507;28;20028;-68
2021/08/30 03:39:45;;;;;;;9.90;5.75;;;12.40;99.90;;;;;;5097179;28;20020;-68
2021/08/30 03:42:11;;;;;;;6.47;4.55;;;12.10;99.90;;;;;;5097379;28;20103;-68
2021/08/30 03:44:38;;;;;;;8.52;4.70;;;12.50;99.90;;;;;;5097328;28;20631;-68
2021/08/30 03:47:06;;;;;;;12.48;4.68;;;12.80;99.90;;;;;;5096944;28;20024;-68
2021/08/30 03:49:33;;;;;;;11.13;5.72;;;12.50;99.90;;;;;;5097294;28;20020;-68
2021/08/30 03:52:00;;;;;;;7.80;5.43;;;12.60;99.90;;;;;;5097217;28;20095;-68
2021/08/30 03:54:27;;;;;;;8.63;4.63;;;12.60;99.90;;;;;;5097029;28;20391;-68
2021/08/30 03:56:54;;;;;;;7.15;4.88;;;12.10;99.90;;;;;;5096957;28;20544;-68
2021/08/30 03:59:21;;;;;;;7.75;5.30;;;12.40;99.90;;;;;;5096797;28;20492;-68
2021/08/30 04:01:52;;;;;;;7.20;4.60;;;12.50;99.90;;;;;;5096591;28;20020;-68
2021/08/30 04:04:22;;;;;;;8.68;4.90;;;12.10;99.90;;;;;;5096995;28;20099;-68
2021/08/30 04:06:49;;;;;;;6.50;4.10;;;12.20;99.90;;;;;;5097009;28;20027;-68
2021/08/30 04:09:19;;;;;;;8.27;5.03;;;12.30;99.90;;;;;;5096820;28;20024;-68
2021/08/30 04:11:45;;;;;;;9.15;4.70;;;12.80;99.90;;;;;;5096687;28;20488;-68
2021/08/30 04:14:12;;;;;;;9.60;4.78;;;13.00;99.90;;;;;;5096836;28;20028;-68
2021/08/30 04:16:39;;;;;;;8.05;4.63;;;12.50;99.90;;;;;;5096428;28;20055;-68
2021/08/30 04:19:05;;;;;;;11.15;4.97;;;11.90;99.90;;;;;;5095742;28;20027;-68
2021/08/30 04:21:31;;;;;;;15.52;6.10;;;12.10;99.90;;;;;;5096817;28;20016;-68
2021/08/30 04:23:57;;;;;;;8.57;4.55;;;12.30;99.90;;;;;;5096634;28;20024;-68
2021/08/30 04:26:23;;;;;;;11.77;6.38;;;12.30;99.90;;;;;;5096462;28;20024;-68
2021/08/30 04:28:49;;;;;;;8.52;4.50;;;12.30;99.90;;;;;;5096731;28;20035;-68
2021/08/30 04:31:14;;;;;;;10.80;4.97;;;11.80;99.90;;;;;;5096282;28;20081;-68
2021/08/30 04:33:40;;;;;;;7.65;5.22;;;12.20;99.90;;;;;;5096641;28;20089;-68
2021/08/30 04:36:06;;;;;;;7.85;4.28;;;11.90;99.90;;;;;;5096542;28;20020;-68
2021/08/30 04:38:33;;;;;;;8.82;4.78;;;11.10;99.90;;;;;;5096713;28;20041;-68
2021/08/30 04:40:59;;;;;;;6.45;4.65;;;12.00;99.90;;;;;;5096645;28;20024;-68
2021/08/30 04:43:25;;;;;;;6.60;4.55;;;12.10;99.90;;;;;;5096539;28;20027;-68
2021/08/30 04:45:51;;;;;;;8.10;4.53;;;12.30;99.90;;;;;;5096141;28;20028;-68
2021/08/30 04:48:17;;;;;;;8.25;4.65;;;12.10;99.90;;;;;;5096646;28;20021;-68
2021/08/30 04:50:42;;;;;;;7.90;4.13;;;11.80;99.90;;;;;;5096433;28;20138;-68
2021/08/30 04:53:08;;;;;;;8.45;4.68;;;12.10;99.90;;;;;;5096453;28;20060;-68
2021/08/30 04:55:36;;;;;;;5.55;4.30;;;12.20;99.90;;;;;;5096403;28;20052;-68
2021/08/30 04:58:04;;;;;;;6.38;4.60;;;11.80;99.90;;;;;;5082672;28;20467;-68
2021/08/30 05:00:31;;;;;;;13.25;4.72;;;12.20;99.90;;;;;;5091004;28;20031;-68
2021/08/30 05:02:57;;;;;;;8.88;4.32;;;12.10;99.90;;;;;;5105230;28;20041;-68
2021/08/30 05:05:23;;;;;;;6.47;4.35;;;12.10;99.90;;;;;;5098122;28;20131;-68
2021/08/30 05:07:48;;;;;;;11.23;4.68;;;12.00;99.90;;;;;;5096444;28;20063;-68
2021/08/30 05:10:15;;;;;;;6.45;4.22;;;11.60;99.90;;;;;;5096089;28;20043;-67
2021/08/30 05:12:41;;;;;;;6.75;4.07;;;11.60;99.90;;;;;;5095926;28;20077;-68
2021/08/30 05:15:07;;;;;;;8.32;4.30;;;12.00;99.90;;;;;;5100663;28;20016;-68
2021/08/30 05:17:33;;;;;;;5.47;4.38;;;11.80;99.90;;;;;;5096233;28;20032;-69
2021/08/30 05:19:59;;;;;;;5.43;3.47;;;11.90;99.90;;;;;;5095699;28;20020;-68
2021/08/30 05:22:25;;;;;;;7.85;4.25;;;11.90;99.90;;;;;;5096319;28;20616;-68
2021/08/30 05:24:51;;;;;;;7.82;3.72;;;12.10;99.90;;;;;;5095780;28;20021;-62
2021/08/30 05:27:17;;;;;;;5.13;3.85;;;12.00;99.90;;;;;;5095647;28;20111;-70
2021/08/30 05:29:43;;;;;;;4.15;3.30;;;11.70;99.90;;;;;;5096554;28;20411;-70
2021/08/30 05:32:09;;;;;;;4.43;3.20;;;12.10;99.90;;;;;;5098338;28;20031;-70
2021/08/30 05:34:35;;;;;;;8.85;3.95;;;12.30;99.90;;;;;;5099085;28;20039;-70
2021/08/30 05:37:01;;;;;;;8.30;4.00;;;12.10;99.90;;;;;;5099723;28;20065;-70
2021/08/30 05:39:27;;;;;;;5.00;3.25;;;11.90;99.90;;;;;;5099185;28;20506;-70
2021/08/30 05:41:52;;;;;;;7.35;4.13;;;12.10;99.90;;;;;;5099512;28;20093;-70
2021/08/30 05:44:18;;;;;;;7.65;4.13;;;12.70;99.90;;;;;;5099490;28;20020;-70
2021/08/30 05:46:44;;;;;;;4.75;4.10;;;12.10;99.90;;;;;;5099054;28;20024;-70
2021/08/30 05:49:10;;;;;;;9.10;4.13;;;12.30;99.90;;;;;;5099291;28;20028;-70
2021/08/30 05:51:36;;;;;;;6.47;3.83;;;12.40;99.90;;;;;;5099327;28;20028;-70
2021/08/30 05:54:02;;;;;;;7.85;3.75;;;12.70;99.90;;;;;;5099233;28;20016;-70
2021/08/30 05:56:28;;;;;;;6.78;3.85;;;12.60;99.90;;;;;;5099368;28;20454;-70
2021/08/30 05:58:54;;;;;;;9.80;3.67;;;13.10;99.90;;;;;;5097620;28;20047;-70
2021/08/30 06:01:20;;;;;;;3.60;2.83;;;12.90;99.90;;;;;;5098701;28;20024;-70
2021/08/30 06:03:46;;;;;;;9.15;3.60;;;12.90;99.90;;;;;;5098957;28;20503;-70
2021/08/30 06:06:12;;;;;;;7.85;3.40;;;13.30;99.90;;;;;;5099063;28;20028;-70
2021/08/30 06:08:37;;;;;;;7.57;4.30;;;13.50;99.90;;;;;;5098733;28;20016;-70
2021/08/30 06:11:03;;;;;;;9.43;3.83;;;13.20;99.90;;;;;;5098993;28;20377;-70
2021/08/30 06:13:29;;;;;;;5.20;3.35;;;12.70;99.90;;;;;;5098859;28;20024;-70
2021/08/30 06:15:55;;;;;;;7.10;3.58;;;13.50;99.90;;;;;;5098683;28;20032;-70
2021/08/30 06:18:21;;;;;;;4.60;3.08;;;13.50;99.90;;;;;;5098704;28;20024;-70
2021/08/30 06:20:47;;;;;;;6.03;3.08;;;13.60;99.90;;;;;;5098709;28;20039;-70
2021/08/30 06:23:13;;;;;;;3.30;2.90;;;13.40;99.90;;;;;;5098573;28;20399;-70
2021/08/30 06:25:39;;;;;;;8.52;3.38;;;13.80;99.90;;;;;;5098832;28;20024;-70
2021/08/30 06:28:05;;;;;;;4.93;2.63;;;13.40;99.90;;;;;;5098401;28;20023;-70
2021/08/30 06:30:33;;;;;;;4.20;2.88;;;13.60;99.90;;;;;;5098895;28;20028;-70
2021/08/30 06:32:59;;;;;;;8.27;3.97;;;13.60;99.90;;;;;;5098646;28;20024;-70
2021/08/30 06:35:25;;;;;;;7.50;3.40;;;14.30;99.90;;;;;;5098614;28;20027;-70
2021/08/30 06:37:51;;;;;;;9.13;3.80;;;14.10;99.90;;;;;;5096931;28;20028;-70
2021/08/30 06:40:18;;;;;;;6.45;2.75;;;13.90;99.90;;;;;;5098070;28;20039;-70
2021/08/30 06:42:43;;;;;;;8.25;3.45;;;14.00;99.90;;;;;;5097592;28;20431;-70
2021/08/30 06:45:10;;;;;;;6.53;3.17;;;14.20;99.90;;;;;;5098273;28;20024;-70
2021/08/30 06:47:36;;;;;;;4.82;3.08;;;14.20;99.90;;;;;;5097788;28;20430;-70
2021/08/30 06:50:06;;;;;;;5.43;2.90;;;14.60;99.90;;;;;;5098346;28;20028;-70
2021/08/30 06:52:31;;;;;;;11.23;3.10;;;14.40;99.90;;;;;;5098102;28;20031;-70
2021/08/30 06:54:57;;;;;;;6.70;3.22;;;12.10;99.90;;;;;;5098133;28;20032;-70
2021/08/30 06:57:23;;;;;;;12.75;3.38;;;14.60;99.90;;;;;;5097696;28;20024;-70
2021/08/30 06:59:49;;;;;;;7.13;2.78;;;14.70;99.90;;;;;;5097910;28;20078;-70
2021/08/30 07:02:15;;;;;;;7.93;3.50;;;14.90;99.90;;;;;;5097531;28;20392;-70
2021/08/30 07:04:40;;;;;;;4.65;2.45;;;14.90;99.90;;;;;;5097978;28;20816;-70
2021/08/30 07:07:06;;;;;;;6.10;3.05;;;15.10;99.90;;;;;;5097714;28;20427;-70
2021/08/30 07:09:32;;;;;;;4.78;2.92;;;15.10;99.90;;;;;;5097981;28;20024;-70
2021/08/30 07:11:58;;;;;;;8.88;2.90;;;14.90;99.90;;;;;;5097721;28;20027;-70
2021/08/30 07:14:24;;;;;;;11.88;2.97;;;15.40;99.90;;;;;;5097701;28;20028;-70
2021/08/30 07:16:50;;;;;;;8.00;3.05;;;15.60;99.90;;;;;;5095905;28;20020;-70
2021/08/30 07:19:15;;;;;;;6.45;2.47;;;15.30;99.90;;;;;;5097465;28;20039;-70
2021/08/30 07:21:41;;;;;;;11.55;3.05;;;15.20;99.90;;;;;;5097444;28;20103;-70
2021/08/30 07:24:07;;;;;;;5.20;2.85;;;15.50;99.90;;;;;;5097373;28;20024;-70
2021/08/30 07:26:33;;;;;;;4.60;3.03;;;15.70;99.90;;;;;;5097246;28;20020;-70
2021/08/30 07:28:59;;;;;;;6.13;3.20;;;15.60;99.90;;;;;;5096300;28;20020;-70
2021/08/30 07:31:25;;;;;;;9.10;3.67;;;15.90;99.90;;;;;;5096723;28;20488;-70
2021/08/30 07:33:52;;;;;;;8.20;3.88;;;16.00;99.90;;;;;;5097284;28;20081;-70
2021/08/30 07:36:20;;;;;;;7.70;2.70;;;15.80;99.90;;;;;;5097174;28;20020;-70
2021/08/30 07:38:46;;;;;;;7.05;3.13;;;16.00;99.90;;;;;;5097182;28;20028;-70
2021/08/30 07:41:12;;;;;;;6.63;2.85;;;16.00;99.90;;;;;;5095782;28;20039;-70
2021/08/30 07:43:37;;;;;;;11.38;3.03;;;16.10;99.90;;;;;;5097342;28;20016;-70
2021/08/30 07:46:04;;;;;;;10.50;3.72;;;16.00;99.90;;;;;;5096610;28;20016;-70
2021/08/30 07:48:29;;;;;;;4.78;2.40;;;16.40;99.90;;;;;;5097402;28;20376;-70
2021/08/30 07:50:55;;;;;;;5.50;2.60;;;16.50;99.90;;;;;;5096956;28;20030;-70
2021/08/30 07:53:26;;;;;;;9.52;3.45;;;16.70;99.90;;;;;;5096786;28;20496;-70
2021/08/30 07:55:53;;;;;;;4.30;2.67;;;16.80;99.90;;;;;;5095702;28;20624;-70
2021/08/30 07:58:20;;;;;;;8.05;2.95;;;16.80;99.90;;;;;;5096884;28;20144;-70
2021/08/30 08:00:45;;;;;;;7.60;2.40;;;17.10;99.90;;;;;;5096655;28;20028;-70
2021/08/30 08:03:11;;;;;;;9.63;2.90;;;17.20;99.90;;;;;;5096846;28;20064;-70
2021/08/30 08:05:39;;;;;;;8.95;3.33;;;17.60;99.90;;;;;;5097127;28;20048;-70
2021/08/30 08:08:05;;;;;;;6.40;2.72;;;17.80;99.90;;;;;;5096791;28;20023;-70
2021/08/30 08:10:31;;;;;;;6.85;3.15;;;18.10;99.90;;;;;;5096802;28;20054;-70
2021/08/30 08:12:57;;;;;;;11.93;3.08;;;18.10;99.90;;;;;;5096778;28;20411;-70
2021/08/30 08:15:23;;;;;;;9.13;2.88;;;18.10;99.90;;;;;;5096846;28;20024;-70
2021/08/30 08:17:49;;;;;;;4.53;2.30;;;18.20;99.90;;;;;;5096412;28;20024;-70
2021/08/30 08:20:15;;;;;;;8.60;3.35;;;18.50;99.90;;;;;;5096726;28;20099;-70
2021/08/30 08:22:42;;;;;;;8.73;3.45;;;18.90;99.90;;;;;;5096710;28;20472;-70
2021/08/30 08:25:09;;;;;;;8.95;2.03;;;19.20;99.90;;;;;;5096700;28;20028;-70
2021/08/30 08:27:36;;;;;;;7.88;3.00;;;19.40;99.90;;;;;;5096453;28;20480;-70
2021/08/30 08:30:03;;;;;;;7.55;3.30;;;19.60;99.90;;;;;;5096828;28;20058;-70
2021/08/30 08:32:28;;;;;;;8.65;2.53;;;19.50;99.90;;;;;;5096139;28;20012;-70
2021/08/30 08:34:54;;;;;;;5.38;3.00;;;19.60;99.90;;;;;;5096728;28;20486;-70
2021/08/30 08:37:20;;;;;;;4.75;2.53;;;19.50;99.90;;;;;;5096514;28;20024;-70
2021/08/30 08:39:46;;;;;;;5.30;2.47;;;19.40;99.90;;;;;;5096537;28;20031;-71
2021/08/30 08:42:12;;;;;;;6.65;3.15;;;19.40;99.90;;;;;;5096440;28;20461;-70
2021/08/30 08:44:38;;;;;;;7.70;3.40;;;19.50;99.90;;;;;;5096648;28;20067;-70
2021/08/30 08:47:04;;;;;;;10.48;3.42;;;19.60;99.90;;;;;;5096029;28;20024;-71
2021/08/30 08:49:30;;;;;;;10.95;3.53;;;19.70;99.90;;;;;;5096752;28;20028;-70
2021/08/30 08:51:56;;;;;;;7.28;2.95;;;19.80;99.90;;;;;;5096323;28;20101;-70
2021/08/30 08:54:21;;;;;;;4.97;2.35;;;19.70;99.90;;;;;;5096479;28;20360;-70
2021/08/30 08:56:47;;;;;;;6.50;2.63;;;19.80;99.90;;;;;;5096258;28;20020;-70
2021/08/30 08:59:13;;;;;;;5.53;2.28;;;20.00;99.90;;;;;;5096193;28;20048;-70
2021/08/30 09:01:41;;;;;;;5.80;2.13;;;20.30;99.90;;;;;;5095909;28;20029;-70
2021/08/30 09:04:06;;;;;;;6.63;2.40;;;20.60;99.90;;;;;;5096962;28;20016;-70
2021/08/30 09:06:43;;;;;;;4.80;2.30;;;;;;;;;;5100058;28;20070;-71
2021/08/30 09:09:18;;;;;;;8.55;3.17;;;;;;;;;;5100122;28;20023;-70
2021/08/30 09:11:51;;;;;;;4.17;2.17;;;22.90;99.90;;;;;;5099781;28;20569;-70
2021/08/30 09:14:22;;;;;;;7.85;3.55;;;22.90;99.90;;;;;;5100190;28;20492;-70
2021/08/30 09:16:59;;;;;;;5.32;1.80;;;22.80;99.90;;;;;;5099616;28;20020;-70
2021/08/30 09:19:26;;;;;;;3.22;1.80;;;23.10;99.90;;;;;;5098517;28;20016;-70
2021/08/30 09:21:52;;;;;;;4.82;2.50;;;23.70;99.90;;;;;;5099886;28;20099;-71
2021/08/30 09:24:20;;;;;;;5.10;2.15;;;23.70;99.90;;;;;;5099690;28;20453;-68
2021/08/30 09:26:49;;;;;;;3.47;2.00;;;23.90;99.90;;;;;;5099869;28;20016;-69
2021/08/30 09:29:22;;;;;;;2.42;1.75;;;24.10;99.90;;;;;;5099712;28;20020;-70
2021/08/30 09:32:04;;;;;;;4.72;2.13;;;;;;;;;;5099369;28;20012;-69
2021/08/30 09:34:30;;;;;;;4.65;1.85;;;24.50;99.90;;;;;;5099704;28;20469;-70
2021/08/30 09:36:56;;;;;;;3.47;2.30;;;24.60;99.90;;;;;;5099731;28;20024;-69
2021/08/30 09:39:22;;;;;;;5.30;2.72;;;24.50;99.90;;;;;;5097928;28;20056;-70
2021/08/30 09:41:48;;;;;;;2.95;2.42;;;24.90;99.90;;;;;;5099572;28;20537;-70
2021/08/30 09:44:14;;;;;;;4.65;1.80;;;24.60;99.90;;;;;;5099422;28;20012;-70
2021/08/30 09:46:39;;;;;;;2.45;1.33;;;24.50;99.90;;;;;;5099176;28;20034;-70
2021/08/30 09:49:06;;;;;;;3.08;1.63;;;24.70;99.90;;;;;;5099280;28;20019;-70
2021/08/30 09:51:40;;;;;;;6.50;2.92;;;24.60;99.90;;;;;;5099308;28;20050;-70
2021/08/30 09:54:07;;;;;;;3.15;1.35;;;24.40;99.90;;;;;;5099085;28;20069;-70
2021/08/30 09:56:37;;;;;;;3.78;1.70;;;24.30;99.90;;;;;;5099251;28;20107;-70
2021/08/30 09:59:09;;;;;;;2.05;1.48;;;24.00;99.90;;;;;;5098946;28;20048;-69
2021/08/30 10:01:40;;;;;;;3.63;1.58;;;24.50;99.90;;;;;;5098733;28;20020;-70
2021/08/30 10:04:08;;;;;;;6.03;1.52;;;25.20;99.90;;;;;;5099157;28;20475;-70
2021/08/30 10:06:39;;;;;;;2.65;1.60;;;25.20;99.90;;;;;;5099084;28;20429;-70
2021/08/30 10:09:14;;;;;;;2.95;1.13;;;24.70;99.90;;;;;;5098944;28;20102;-70
2021/08/30 10:11:41;;;;;;;4.13;1.50;;;24.00;99.90;;;;;;5098777;28;20020;-69
2021/08/30 10:14:08;;;;;;;3.90;1.67;;;23.70;99.90;;;;;;5098959;28;20024;-70
2021/08/30 10:16:35;;;;;;;2.17;1.38;;;23.70;99.90;;;;;;5095799;28;20565;-70
2021/08/30 10:19:01;;;;;;;2.50;1.20;;;23.50;99.90;;;;;;5098998;28;20020;-70
2021/08/30 10:21:29;;;;;;;5.40;1.77;;;23.30;99.90;;;;;;5098660;28;20020;-69
2021/08/30 10:23:55;;;;;;;2.28;1.48;;;23.10;99.90;;;;;;5098667;28;20031;-69
2021/08/30 10:26:23;;;;;;;2.55;1.20;;;22.90;99.90;;;;;;5098498;28;20398;-69
2021/08/30 10:28:49;;;;;;;6.70;2.35;;;22.80;99.90;;;;;;5098667;28;20036;-69
2021/08/30 10:31:18;;;;;;;2.70;1.33;;;22.70;99.90;;;;;;5098024;28;20506;-69
2021/08/30 10:33:47;;;;;;;3.13;1.38;;;23.00;99.90;;;;;;5089543;28;20031;-69
2021/08/30 10:36:15;;;;;;;1.83;1.60;;;23.70;99.90;;;;;;5098376;28;20039;-69
2021/08/30 10:38:41;;;;;;;5.30;1.98;;;23.70;99.90;;;;;;5097008;28;20036;-70
2021/08/30 10:41:18;;;;;;;1.98;1.48;;;23.30;99.90;;;;;;5098101;28;20492;-69
2021/08/30 10:43:45;;;;;;;2.72;1.58;;;23.30;99.90;;;;;;5098404;28;20020;-70
2021/08/30 10:46:17;;;;;;;1.98;1.23;;;23.80;99.90;;;;;;5097760;28;20028;-70
2021/08/30 10:48:50;;;;;;;2.03;1.30;;;24.50;99.90;;;;;;5098148;28;20016;-69
2021/08/30 10:51:28;;;;;;;3.63;1.50;;;25.10;99.90;;;;;;5096821;28;20028;-70
2021/08/30 10:53:58;;;;;;;5.97;1.60;;;25.50;99.90;;;;;;5097928;28;20016;-69
2021/08/30 10:56:27;;;;;;;7.03;1.40;;;25.30;99.90;;;;;;5098209;28;20105;-69
2021/08/30 10:58:56;;;;;;;3.90;1.80;;;26.10;99.90;;;;;;5097769;28;20408;-70
2021/08/30 11:01:22;;;;;;;4.32;1.77;;;26.80;99.90;;;;;;5097524;28;20032;-70
2021/08/30 11:03:56;;;;;;;1.63;0.77;;;27.10;99.90;;;;;;5097830;28;20077;-70
2021/08/30 11:06:24;;;;;;;3.65;1.38;;;26.90;99.10;;;;;;5097884;28;20468;-69
2021/08/30 11:08:50;;;;;;;1.00;0.90;;;26.20;99.20;;;;;;5097605;28;20048;-69
2021/08/30 11:11:17;;;;;;;2.03;0.90;;;25.40;99.90;;;;;;5096417;28;20028;-69
2021/08/30 11:13:56;;;;;;;2.55;0.90;;;24.40;99.90;;;;;;5096268;28;20028;-70
2021/08/30 11:16:24;;;;;;;3.15;1.48;;;24.30;99.90;;;;;;5097331;28;20028;-70
2021/08/30 11:18:56;;;;;;;2.90;1.35;;;23.60;99.90;;;;;;5097739;28;20066;-69
2021/08/30 11:21:47;;;;;;;2.55;1.02;;;23.50;99.90;;;;;;5097230;28;20552;-69
2021/08/30 11:24:34;;;;;;;1.35;0.90;;;24.50;99.90;;;;;;5096126;28;20024;-69
2021/08/30 11:27:12;;;;;;;1.30;0.85;;;26.70;99.90;;;;;;5097469;28;20020;-70
2021/08/30 11:29:46;;;;;;;1.25;0.70;;;28.70;97.80;;;;;;5097384;28;20389;-69
2021/08/30 11:32:13;;;;;;;1.13;0.80;;;28.80;95.80;;;;;;5096954;28;20020;-70
2021/08/30 11:34:40;;;;;;;1.17;0.68;;;28.50;96.40;;;;;;5097578;28;20039;-70
2021/08/30 11:37:08;;;;;;;2.20;0.73;;;29.90;95.10;;;;;;5097389;28;20499;-68
2021/08/30 11:39:37;;;;;;;1.38;1.02;;;30.00;95.00;;;;;;5097142;28;20103;-68
2021/08/30 11:42:09;;;;;;;0.73;0.63;;;28.90;93.10;;;;;;5097258;28;20024;-68
2021/08/30 11:44:37;;;;;;;2.05;0.90;;;27.90;94.20;;;;;;5097282;28;20027;-68
2021/08/30 11:47:05;;;;;;;1.15;0.70;;;27.50;94.90;;;;;;5096756;28;20016;-67
2021/08/30 11:49:42;;;;;;;1.20;0.70;;;27.30;95.80;;;;;;5097318;28;20028;-68
2021/08/30 11:52:10;;;;;;;1.17;0.50;;;27.60;95.80;;;;;;5096989;28;20034;-68
2021/08/30 11:54:39;;;;;;;1.00;0.50;;;28.80;95.20;;;;;;5097031;28;20027;-68
2021/08/30 11:57:13;;;;;;;0.98;0.80;;;29.40;93.20;;;;;;5096862;28;20016;-67
2021/08/30 11:59:51;;;;;;;2.13;0.70;;;28.90;92.30;;;;;;5096814;28;20437;-68
2021/08/30 12:02:17;;;;;;;2.63;0.80;;;27.90;92.60;;;;;;5096442;28;20023;-67
2021/08/30 12:04:44;;;;;;;0.65;0.60;;;25.70;93.70;;;;;;5097071;28;20052;-68
2021/08/30 12:07:12;;;;;;;0.80;0.70;;;24.70;94.80;;;;;;5095580;28;20515;-67
2021/08/30 12:09:49;;;;;;;4.68;0.88;;;24.70;95.00;;;;;;5096834;28;20067;-68
2021/08/30 12:12:17;;;;;;;3.05;0.73;;;23.90;96.20;;;;;;5096917;28;20031;-68
2021/08/30 12:14:54;;;;;;;1.08;0.93;;;23.40;97.10;;;;;;5096805;28;20020;-69
2021/08/30 12:17:24;;;;;;;1.52;0.80;;;23.10;98.20;;;;;;5096544;28;20481;-70
2021/08/30 12:19:58;;;;;;;3.28;1.00;;;23.10;98.90;;;;;;5096569;28;20107;-69
2021/08/30 12:22:31;;;;;;;1.58;0.70;;;23.40;98.80;;;;;;5096738;28;20069;-69
2021/08/30 12:25:09;;;;;;;2.38;0.70;;;23.90;99.20;;;;;;5096622;28;20537;-69
2021/08/30 12:27:40;;;;;;;1.17;0.82;;;24.40;98.20;;;;;;5096485;28;20103;-69
2021/08/30 12:30:09;;;;;;;1.08;0.77;;;24.50;97.10;;;;;;5096831;28;20032;-70
2021/08/30 12:32:51;;;;;;;1.05;0.52;;;24.80;97.40;;;;;;5096026;28;20016;-70
2021/08/30 12:35:24;;;;;;;5.15;0.88;;;25.50;95.60;;;;;;5096662;28;20052;-69
2021/08/30 12:37:54;;;;;;;1.08;0.70;;;25.70;95.90;;;;;;5096468;28;20526;-69
2021/08/30 12:40:20;;;;;;;3.25;0.70;;;25.90;95.50;;;;;;5099072;28;20549;-70
2021/08/30 12:42:47;;;;;;;0.85;0.50;;;26.20;96.30;;;;;;5100571;28;20051;-70
2021/08/30 12:45:13;;;;;;;1.65;1.02;;;27.30;94.30;;;;;;5100558;28;20488;-70
2021/08/30 12:47:40;;;;;;;1.13;0.57;;;27.50;94.50;;;;;;5100276;28;20047;-69
2021/08/30 12:50:06;;;;;;;1.10;0.73;;;27.90;94.20;;;;;;5100669;28;20081;-69
2021/08/30 12:52:32;;;;;;;2.60;1.00;;;28.00;92.70;;;;;;5100271;28;20032;-69